Time;durP1;ratioP1;P1;durP2;ratioP2;P2;SDS_P1;SDS_P2;PMS_P1;PMS_P2;Temp;Humidity;BMP_temperature;BMP_pressure;BME280_temperature;BME280_humidity;BME280_pressure;Samples;Min_cycle;Max_cycle;Signal;HPM_P1;HPM_P2
2023/04/05 00:02:01;;;;;;;5.40;4.27;;;4.60;61.90;;;;;;5080302;28;20429;-72
2023/04/05 00:04:29;;;;;;;5.43;4.60;;;4.60;62.10;;;;;;5084428;28;20430;-72
2023/04/05 00:06:56;;;;;;;5.25;4.57;;;4.50;61.50;;;;;;5075736;28;20426;-72
2023/04/05 00:09:25;;;;;;;4.40;4.00;;;4.50;62.50;;;;;;5068745;28;20846;-72
2023/04/05 00:11:51;;;;;;;5.43;4.53;;;4.40;61.90;;;;;;5071783;28;20480;-72
2023/04/05 00:14:18;;;;;;;5.70;4.47;;;4.40;61.70;;;;;;5061214;28;20436;-72
2023/04/05 00:16:45;;;;;;;4.20;3.80;;;4.30;63.00;;;;;;5070451;28;20414;-72
2023/04/05 00:19:12;;;;;;;4.22;3.83;;;4.30;62.90;;;;;;5057408;28;20433;-73
2023/04/05 00:21:39;;;;;;;4.70;4.25;;;4.30;63.60;;;;;;5074723;28;20561;-70
2023/04/05 00:24:14;;;;;;;4.60;3.95;;;4.30;63.50;;;;;;5070370;28;20870;-72
2023/04/05 00:26:43;;;;;;;4.80;4.35;;;4.30;61.50;;;;;;5070180;28;20470;-70
2023/04/05 00:29:10;;;;;;;4.93;3.67;;;4.30;62.10;;;;;;5064943;28;20494;-73
2023/04/05 00:31:37;;;;;;;5.53;4.20;;;4.30;64.20;;;;;;5069428;28;20428;-71
2023/04/05 00:34:04;;;;;;;4.93;4.18;;;4.40;63.30;;;;;;5053112;28;20871;-71
2023/04/05 00:36:31;;;;;;;4.78;3.85;;;4.40;63.80;;;;;;5069245;28;20429;-72
2023/04/05 00:38:58;;;;;;;6.57;3.90;;;4.40;62.70;;;;;;5074034;28;20439;-73
2023/04/05 00:41:24;;;;;;;5.00;4.30;;;4.50;62.10;;;;;;5076747;28;20428;-71
2023/04/05 00:43:53;;;;;;;5.85;4.90;;;4.50;61.70;;;;;;5066185;28;20411;-71
2023/04/05 00:46:20;;;;;;;4.47;4.07;;;4.60;61.70;;;;;;5051200;28;20513;-70
2023/04/05 00:48:47;;;;;;;4.90;4.40;;;4.60;62.50;;;;;;5060585;28;20427;-71
2023/04/05 00:51:14;;;;;;;4.50;3.83;;;4.70;62.10;;;;;;5074944;28;20800;-72
2023/04/05 00:53:41;;;;;;;5.35;3.83;;;4.70;62.10;;;;;;5061591;28;20524;-71
2023/04/05 00:56:09;;;;;;;4.90;4.40;;;4.70;62.60;;;;;;5057723;28;20426;-72
2023/04/05 00:58:35;;;;;;;4.95;4.22;;;4.70;63.20;;;;;;5074301;28;20413;-71
2023/04/05 01:01:12;;;;;;;6.35;4.25;;;4.70;63.60;;;;;;5051623;28;20927;-71
2023/04/05 01:03:43;;;;;;;5.38;4.38;;;4.70;63.20;;;;;;5063724;28;20424;-71
2023/04/05 01:06:20;;;;;;;4.97;4.47;;;4.70;63.00;;;;;;5069305;28;20479;-71
2023/04/05 01:09:00;;;;;;;5.10;4.60;;;4.70;61.90;;;;;;5050633;28;20433;-72
2023/04/05 01:11:29;;;;;;;6.32;4.20;;;4.80;61.80;;;;;;5054411;28;20425;-71
2023/04/05 01:13:58;;;;;;;4.60;3.85;;;4.80;60.60;;;;;;5065734;28;20428;-71
2023/04/05 01:16:27;;;;;;;5.03;4.53;;;4.80;60.50;;;;;;5067610;28;20414;-71
2023/04/05 01:18:55;;;;;;;4.90;4.40;;;4.80;59.90;;;;;;5071879;28;20423;-70
2023/04/05 01:22:13;;;;;;;7.13;4.72;;;4.90;60.30;;;;;;5068727;28;20520;-72
2023/04/05 01:25:05;;;;;;;4.70;4.20;;;4.80;60.60;;;;;;5050162;28;20512;-71
2023/04/05 01:27:45;;;;;;;5.25;4.75;;;4.80;62.20;;;;;;5051463;28;20430;-72
2023/04/05 01:30:18;;;;;;;6.40;4.50;;;4.80;61.80;;;;;;5055630;28;20420;-71
2023/04/05 01:32:59;;;;;;;6.83;5.47;;;4.80;63.10;;;;;;5070608;28;20457;-70
2023/04/05 01:35:33;;;;;;;5.27;4.60;;;4.80;64.20;;;;;;5067202;28;20429;-70
2023/04/05 01:38:03;;;;;;;6.07;5.07;;;4.80;63.70;;;;;;5067249;28;20797;-71
2023/04/05 01:40:31;;;;;;;6.60;5.07;;;4.80;63.50;;;;;;5070145;28;20433;-72
2023/04/05 01:42:57;;;;;;;6.85;5.22;;;4.80;64.60;;;;;;5061125;28;20425;-71
2023/04/05 01:45:25;;;;;;;5.30;4.80;;;4.80;65.80;;;;;;5059707;28;20419;-70
2023/04/05 01:47:52;;;;;;;5.30;4.80;;;4.80;65.90;;;;;;5060405;28;21100;-71
2023/04/05 01:50:19;;;;;;;5.28;4.75;;;4.80;64.80;;;;;;5072736;28;20425;-72
2023/04/05 01:52:46;;;;;;;5.40;4.90;;;4.70;64.20;;;;;;5071700;28;20432;-71
2023/04/05 01:55:13;;;;;;;5.70;5.00;;;4.70;64.30;;;;;;5049461;28;20422;-70
2023/04/05 01:57:40;;;;;;;5.67;5.13;;;4.70;64.30;;;;;;5053460;28;20817;-71
2023/04/05 02:00:08;;;;;;;6.03;5.43;;;4.70;66.00;;;;;;5081351;28;21418;-73
2023/04/05 02:02:36;;;;;;;5.63;5.13;;;4.70;66.40;;;;;;5056323;28;20416;-70
2023/04/05 02:05:05;;;;;;;5.97;5.18;;;4.60;65.70;;;;;;5063245;28;20449;-70
2023/04/05 02:07:32;;;;;;;6.25;5.65;;;4.60;65.40;;;;;;5071871;28;20433;-72
2023/04/05 02:09:59;;;;;;;6.25;5.63;;;4.50;65.90;;;;;;5054387;28;20423;-72
2023/04/05 02:12:25;;;;;;;5.53;5.00;;;4.50;66.40;;;;;;5055533;28;20459;-72
2023/04/05 02:14:52;;;;;;;6.25;5.07;;;4.50;66.90;;;;;;5057378;28;20433;-73
2023/04/05 02:17:20;;;;;;;5.65;4.57;;;4.50;66.50;;;;;;5072637;28;20406;-71
2023/04/05 02:19:48;;;;;;;6.75;5.20;;;4.50;65.90;;;;;;5070961;28;20466;-72
2023/04/05 02:22:15;;;;;;;4.90;4.40;;;4.50;65.60;;;;;;5076520;28;20969;-71
2023/04/05 02:24:42;;;;;;;4.80;4.40;;;4.50;65.80;;;;;;5075005;28;20420;-71
2023/04/05 02:27:08;;;;;;;4.63;4.07;;;4.50;66.60;;;;;;5062939;28;20436;-72
2023/04/05 02:29:35;;;;;;;5.90;4.70;;;4.50;66.50;;;;;;5059043;28;20432;-72
2023/04/05 02:32:02;;;;;;;5.57;4.25;;;4.40;67.20;;;;;;5067164;28;20922;-71
2023/04/05 02:34:30;;;;;;;4.80;4.30;;;4.40;65.80;;;;;;5060134;28;20420;-71
2023/04/05 02:36:58;;;;;;;6.00;5.03;;;4.40;65.90;;;;;;5069320;28;20442;-71
2023/04/05 02:39:25;;;;;;;5.40;4.90;;;4.40;66.10;;;;;;5058336;28;20424;-72
2023/04/05 02:41:51;;;;;;;5.30;4.80;;;4.30;66.50;;;;;;5058313;28;21004;-71
2023/04/05 02:44:18;;;;;;;4.80;4.30;;;4.30;66.00;;;;;;5052386;28;20469;-72
2023/04/05 02:46:45;;;;;;;5.80;5.30;;;4.20;66.10;;;;;;5080387;28;20437;-70
2023/04/05 02:49:12;;;;;;;6.25;4.88;;;4.20;66.30;;;;;;5061758;28;20423;-70
2023/04/05 02:51:38;;;;;;;6.40;5.10;;;4.10;66.50;;;;;;5053500;28;20436;-71
2023/04/05 02:54:06;;;;;;;5.18;4.68;;;4.10;66.30;;;;;;5071682;28;20427;-70
2023/04/05 02:56:33;;;;;;;5.37;4.80;;;4.10;66.80;;;;;;5072297;28;20956;-71
2023/04/05 02:59:00;;;;;;;5.75;4.85;;;4.10;67.30;;;;;;5067570;28;20430;-71
2023/04/05 03:01:27;;;;;;;6.43;4.40;;;4.00;68.00;;;;;;5058480;28;20421;-71
2023/04/05 03:03:54;;;;;;;4.82;4.35;;;4.00;67.80;;;;;;5061893;28;20419;-70
2023/04/05 03:06:21;;;;;;;5.80;4.90;;;3.90;68.40;;;;;;5070033;28;20572;-71
2023/04/05 03:08:48;;;;;;;5.40;4.90;;;3.80;68.60;;;;;;5055409;28;20506;-71
2023/04/05 03:11:16;;;;;;;5.32;4.82;;;3.70;69.60;;;;;;5054203;28;20416;-71
2023/04/05 03:13:43;;;;;;;4.78;4.38;;;3.70;70.30;;;;;;5060717;28;20943;-71
2023/04/05 03:16:11;;;;;;;4.70;4.27;;;3.70;70.80;;;;;;5067330;28;20446;-71
2023/04/05 03:18:38;;;;;;;5.15;4.65;;;3.60;70.70;;;;;;5070212;28;20453;-70
2023/04/05 03:21:05;;;;;;;4.68;4.28;;;3.50;71.20;;;;;;5068066;28;20518;-71
2023/04/05 03:23:32;;;;;;;5.13;4.55;;;3.50;71.50;;;;;;5074340;28;20425;-71
2023/04/05 03:26:00;;;;;;;5.15;4.35;;;3.50;72.10;;;;;;5057765;28;20437;-71
2023/04/05 03:28:28;;;;;;;5.43;4.30;;;3.40;72.50;;;;;;5063021;28;20433;-71
2023/04/05 03:30:55;;;;;;;6.50;4.28;;;3.40;73.20;;;;;;5049325;28;20418;-72
2023/04/05 03:33:22;;;;;;;5.30;4.55;;;3.40;73.30;;;;;;5065087;28;20446;-71
2023/04/05 03:35:49;;;;;;;4.60;4.20;;;3.40;73.80;;;;;;5059470;28;20894;-71
2023/04/05 03:38:16;;;;;;;4.97;4.47;;;3.30;73.50;;;;;;5062267;28;20406;-71
2023/04/05 03:40:43;;;;;;;5.07;4.57;;;3.30;73.90;;;;;;5075365;28;20434;-70
2023/04/05 03:43:10;;;;;;;5.53;5.03;;;3.30;75.10;;;;;;5049173;28;20511;-71
2023/04/05 03:45:38;;;;;;;5.30;4.53;;;3.20;75.50;;;;;;5057293;28;20437;-70
2023/04/05 03:48:05;;;;;;;6.03;4.82;;;3.30;75.50;;;;;;5051456;28;20425;-72
2023/04/05 03:50:32;;;;;;;6.50;5.90;;;3.20;76.00;;;;;;5060279;28;20514;-73
2023/04/05 03:52:59;;;;;;;5.17;4.77;;;3.20;75.40;;;;;;5060751;28;20429;-70
2023/04/05 03:55:25;;;;;;;6.05;4.90;;;3.10;75.70;;;;;;5074467;28;20417;-72
2023/04/05 03:57:53;;;;;;;5.88;5.20;;;3.10;76.70;;;;;;5060409;28;20920;-72
2023/04/05 04:00:22;;;;;;;5.20;4.70;;;3.10;76.10;;;;;;5048028;28;20538;-73
2023/04/05 04:02:51;;;;;;;5.30;4.80;;;3.00;76.00;;;;;;5052826;28;20434;-72
2023/04/05 04:05:18;;;;;;;5.90;5.35;;;3.10;75.70;;;;;;5072086;28;20458;-72
2023/04/05 04:07:46;;;;;;;5.03;4.63;;;3.10;75.30;;;;;;5071189;28;20429;-72
2023/04/05 04:10:16;;;;;;;6.47;4.75;;;3.10;75.60;;;;;;5050799;28;20447;-72
2023/04/05 04:12:43;;;;;;;5.65;5.05;;;3.00;74.70;;;;;;5051856;28;20441;-72
2023/04/05 04:15:10;;;;;;;6.57;4.85;;;3.00;76.10;;;;;;5057560;28;20421;-73
2023/04/05 04:17:38;;;;;;;5.40;4.90;;;3.00;75.60;;;;;;5052436;28;20425;-72
2023/04/05 04:20:09;;;;;;;6.00;5.40;;;3.00;76.50;;;;;;5078821;28;20475;-71
2023/04/05 04:22:37;;;;;;;5.90;4.80;;;3.00;75.10;;;;;;5078859;28;20757;-70
2023/04/05 04:25:08;;;;;;;6.82;5.60;;;3.00;74.80;;;;;;5072044;28;20840;-71
2023/04/05 04:27:39;;;;;;;6.75;5.10;;;3.00;76.00;;;;;;5077232;28;20880;-72
2023/04/05 04:30:09;;;;;;;6.30;5.10;;;2.90;75.10;;;;;;5066864;28;20425;-73
2023/04/05 04:32:53;;;;;;;5.45;4.95;;;2.90;74.80;;;;;;5079490;28;20469;-72
2023/04/05 04:35:23;;;;;;;6.65;5.40;;;2.90;75.70;;;;;;5061242;28;20937;-71
2023/04/05 04:37:57;;;;;;;5.75;5.20;;;2.90;76.30;;;;;;5057349;28;20437;-71
2023/04/05 04:40:25;;;;;;;6.07;5.47;;;2.90;76.40;;;;;;5070177;28;20521;-72
2023/04/05 04:42:53;;;;;;;6.35;5.38;;;2.80;76.40;;;;;;5059107;28;20511;-71
2023/04/05 04:45:20;;;;;;;6.50;5.30;;;2.80;76.40;;;;;;5069805;28;20426;-72
2023/04/05 04:47:48;;;;;;;6.38;5.00;;;2.80;77.00;;;;;;5078533;28;21016;-72
2023/04/05 04:50:18;;;;;;;7.30;5.30;;;2.80;77.90;;;;;;5058770;28;20455;-72
2023/04/05 04:52:47;;;;;;;6.50;5.75;;;2.80;78.30;;;;;;5074908;28;20441;-71
2023/04/05 04:55:14;;;;;;;6.60;5.80;;;2.80;78.90;;;;;;5061234;28;20434;-73
2023/04/05 04:57:41;;;;;;;5.95;5.40;;;2.80;78.10;;;;;;5082368;28;20415;-73
2023/04/05 05:00:13;;;;;;;7.00;5.85;;;2.70;77.40;;;;;;5069264;28;20423;-73
2023/04/05 05:02:41;;;;;;;6.22;5.63;;;2.70;78.00;;;;;;5067215;28;20437;-73
2023/04/05 05:05:09;;;;;;;8.47;5.97;;;2.70;78.00;;;;;;5066445;28;20476;-76
2023/04/05 05:07:37;;;;;;;7.82;6.38;;;2.70;77.80;;;;;;5066574;28;20506;-73
2023/04/05 05:10:06;;;;;;;9.02;6.10;;;2.70;78.00;;;;;;5068705;28;20945;-73
2023/04/05 05:12:33;;;;;;;8.77;7.60;;;2.70;78.50;;;;;;5063899;28;20436;-72
2023/04/05 05:15:00;;;;;;;10.30;7.35;;;2.70;79.70;;;;;;5060117;28;20427;-72
2023/04/05 05:17:26;;;;;;;12.10;8.35;;;2.60;80.70;;;;;;5073050;28;20437;-72
2023/04/05 05:19:53;;;;;;;9.67;6.93;;;2.70;81.60;;;;;;5069959;28;20900;-72
2023/04/05 05:22:20;;;;;;;9.63;6.65;;;2.60;82.50;;;;;;5068808;28;20436;-72
2023/04/05 05:24:47;;;;;;;8.13;7.10;;;2.60;82.90;;;;;;5059993;28;20764;-72
2023/04/05 05:27:15;;;;;;;7.20;5.63;;;2.60;84.00;;;;;;5057382;28;20437;-72
2023/04/05 05:29:41;;;;;;;7.13;6.10;;;2.60;83.30;;;;;;5052051;28;20434;-71
2023/04/05 05:32:13;;;;;;;6.60;5.30;;;2.70;82.10;;;;;;5066998;28;20818;-72
2023/04/05 05:34:40;;;;;;;7.60;6.60;;;2.70;80.70;;;;;;5069751;28;20419;-71
2023/04/05 05:37:08;;;;;;;6.60;5.15;;;2.70;80.40;;;;;;5063375;28;20443;-71
2023/04/05 05:39:35;;;;;;;5.90;5.30;;;2.70;79.60;;;;;;5073198;28;20429;-72
2023/04/05 05:42:02;;;;;;;6.03;5.53;;;2.70;78.90;;;;;;5065942;28;20429;-72
2023/04/05 05:44:30;;;;;;;8.35;6.30;;;2.70;78.30;;;;;;5064021;28;20510;-72
2023/04/05 05:46:57;;;;;;;6.30;5.70;;;2.60;78.10;;;;;;5070543;28;20866;-72
2023/04/05 05:49:23;;;;;;;6.45;5.63;;;2.60;77.80;;;;;;5074873;28;20430;-72
2023/04/05 05:51:51;;;;;;;7.38;5.90;;;2.60;77.80;;;;;;5068730;28;20857;-72
2023/04/05 05:54:18;;;;;;;7.53;6.25;;;2.50;78.30;;;;;;5061200;28;20456;-74
2023/04/05 05:56:45;;;;;;;6.30;5.70;;;2.60;79.40;;;;;;5071559;22;20451;-68
2023/04/05 05:59:12;;;;;;;6.53;5.40;;;2.60;79.10;;;;;;5023998;28;20901;-68
2023/04/05 06:01:41;;;;;;;6.15;5.53;;;2.60;77.10;;;;;;5017809;28;20436;-69
2023/04/05 06:04:08;;;;;;;5.70;5.20;;;2.60;77.60;;;;;;5028154;28;20434;-69
2023/04/05 06:06:35;;;;;;;5.67;4.90;;;2.70;77.40;;;;;;5022544;28;20437;-71
2023/04/05 06:09:02;;;;;;;6.28;5.28;;;2.70;77.90;;;;;;5026076;28;20438;-71
2023/04/05 06:11:28;;;;;;;5.55;5.07;;;2.70;77.70;;;;;;5020921;28;20489;-70
2023/04/05 06:13:55;;;;;;;6.47;5.32;;;2.80;78.00;;;;;;5026912;28;20431;-70
2023/04/05 06:16:22;;;;;;;6.65;5.75;;;2.80;76.80;;;;;;5025575;28;20441;-71
2023/04/05 06:18:50;;;;;;;6.30;5.70;;;2.80;77.30;;;;;;5026587;28;20423;-71
2023/04/05 06:21:17;;;;;;;5.82;5.32;;;2.80;76.20;;;;;;5026969;28;20434;-70
2023/04/05 06:23:43;;;;;;;7.00;5.70;;;2.90;76.10;;;;;;5023789;28;20458;-70
2023/04/05 06:26:19;;;;;;;6.65;5.70;;;2.90;76.60;;;;;;5027256;28;20797;-71
2023/04/05 06:28:47;;;;;;;6.25;5.65;;;2.90;76.40;;;;;;5015932;28;20451;-71
2023/04/05 06:31:16;;;;;;;8.63;6.00;;;3.00;76.10;;;;;;5027302;28;20561;-70
2023/04/05 06:33:42;;;;;;;7.45;6.35;;;3.10;75.20;;;;;;5025735;28;20459;-70
2023/04/05 06:36:11;;;;;;;6.43;5.82;;;3.10;75.20;;;;;;5026308;28;20449;-70
2023/04/05 06:38:38;;;;;;;6.18;5.65;;;3.20;75.00;;;;;;5025319;28;20442;-70
2023/04/05 06:41:04;;;;;;;8.15;6.22;;;3.30;74.20;;;;;;5026223;28;20469;-70
2023/04/05 06:43:31;;;;;;;6.40;5.80;;;3.30;73.70;;;;;;5025275;28;20435;-70
2023/04/05 06:45:59;;;;;;;6.60;6.00;;;3.40;74.10;;;;;;5025747;28;20423;-70
2023/04/05 06:48:27;;;;;;;6.32;5.82;;;3.40;73.70;;;;;;5024434;28;20435;-71
2023/04/05 06:50:57;;;;;;;6.80;5.85;;;3.50;72.90;;;;;;5026297;28;21130;-71
2023/04/05 06:53:26;;;;;;;6.30;5.70;;;3.50;72.10;;;;;;5018102;28;20456;-70
2023/04/05 06:55:53;;;;;;;6.07;5.50;;;3.60;72.60;;;;;;5012253;28;20493;-70
2023/04/05 06:58:20;;;;;;;6.70;5.70;;;3.70;72.30;;;;;;5024518;28;20462;-69
2023/04/05 07:00:47;;;;;;;7.15;5.60;;;3.80;71.10;;;;;;5024687;28;20445;-70
2023/04/05 07:03:14;;;;;;;6.50;5.73;;;3.90;70.50;;;;;;5023256;28;20419;-70
2023/04/05 07:05:41;;;;;;;7.57;6.13;;;4.00;70.20;;;;;;5020670;28;20514;-70
2023/04/05 07:08:08;;;;;;;7.50;6.28;;;4.00;68.90;;;;;;5031274;28;20446;-69
2023/04/05 07:10:40;;;;;;;6.30;5.70;;;4.10;68.90;;;;;;5027068;28;20492;-69
2023/04/05 07:13:07;;;;;;;6.50;5.85;;;4.10;68.80;;;;;;5024004;28;20997;-70
2023/04/05 07:15:34;;;;;;;6.20;5.30;;;4.20;68.90;;;;;;5026033;28;20465;-70
2023/04/05 07:18:00;;;;;;;6.43;5.82;;;4.30;68.60;;;;;;5026034;28;20477;-70
2023/04/05 07:20:27;;;;;;;6.30;5.70;;;4.40;69.00;;;;;;5024833;28;20442;-70
2023/04/05 07:22:54;;;;;;;6.40;5.73;;;4.60;68.80;;;;;;5023035;28;20455;-71
2023/04/05 07:25:21;;;;;;;6.20;5.60;;;4.80;67.90;;;;;;5023504;28;20418;-69
2023/04/05 07:27:49;;;;;;;5.65;5.15;;;4.90;65.80;;;;;;5021880;28;20438;-70
2023/04/05 07:30:16;;;;;;;6.00;5.50;;;5.00;65.60;;;;;;5024334;28;20434;-70
2023/04/05 07:32:42;;;;;;;5.78;4.97;;;5.20;65.40;;;;;;5021349;28;20434;-69
2023/04/05 07:35:09;;;;;;;5.95;5.40;;;5.30;64.30;;;;;;5022299;28;20435;-72
2023/04/05 07:37:37;;;;;;;6.00;5.50;;;5.40;62.80;;;;;;5021321;28;20520;-71
2023/04/05 07:40:06;;;;;;;5.75;5.35;;;5.50;61.70;;;;;;5022078;28;20842;-71
2023/04/05 07:42:33;;;;;;;6.10;5.40;;;5.50;61.10;;;;;;5021747;28;20422;-71
2023/04/05 07:45:01;;;;;;;6.00;5.50;;;5.60;61.60;;;;;;5023366;28;20465;-71
2023/04/05 07:47:28;;;;;;;5.80;5.30;;;5.60;61.80;;;;;;5023312;28;20512;-71
2023/04/05 07:49:54;;;;;;;7.13;5.75;;;5.60;61.10;;;;;;5023199;28;20457;-71
2023/04/05 07:52:21;;;;;;;5.50;5.10;;;5.80;61.00;;;;;;5022542;28;20450;-71
2023/04/05 07:54:48;;;;;;;7.10;6.40;;;5.90;59.90;;;;;;5023011;28;20423;-71
2023/04/05 07:57:17;;;;;;;5.80;5.30;;;6.10;59.00;;;;;;5007327;28;20668;-71
2023/04/05 07:59:44;;;;;;;6.20;5.60;;;6.20;58.70;;;;;;5022564;28;20462;-71
2023/04/05 08:02:12;;;;;;;6.20;5.70;;;6.30;58.30;;;;;;5023308;28;20439;-72
2023/04/05 08:04:39;;;;;;;6.28;5.70;;;6.50;57.20;;;;;;5023885;28;20924;-71
2023/04/05 08:07:05;;;;;;;6.82;6.22;;;6.60;56.70;;;;;;5024069;28;20497;-73
2023/04/05 08:09:32;;;;;;;6.00;5.50;;;6.70;56.70;;;;;;5021715;28;20922;-71
2023/04/05 08:12:01;;;;;;;6.05;5.55;;;6.90;55.80;;;;;;5023360;28;20434;-71
2023/04/05 08:14:28;;;;;;;6.00;5.40;;;7.10;55.80;;;;;;5023281;28;20481;-72
2023/04/05 08:16:55;;;;;;;6.70;5.78;;;7.20;55.20;;;;;;5021632;28;20435;-71
2023/04/05 08:19:23;;;;;;;6.85;5.30;;;7.30;54.40;;;;;;5023075;28;20450;-71
2023/04/05 08:21:49;;;;;;;6.15;5.57;;;7.40;53.80;;;;;;5022780;28;20438;-72
2023/04/05 08:24:16;;;;;;;6.30;5.70;;;7.50;53.40;;;;;;5021253;28;20439;-72
2023/04/05 08:26:43;;;;;;;6.13;5.53;;;7.80;52.80;;;;;;5021988;28;20427;-72
2023/04/05 08:29:10;;;;;;;6.30;5.80;;;8.10;52.20;;;;;;5023207;28;20431;-71
2023/04/05 08:31:36;;;;;;;6.10;5.50;;;8.30;49.90;;;;;;5021877;28;20435;-72
2023/04/05 08:34:07;;;;;;;6.30;5.70;;;8.30;50.50;;;;;;5022391;28;20897;-72
2023/04/05 08:36:35;;;;;;;6.50;5.90;;;8.40;50.40;;;;;;5023336;28;20540;-71
2023/04/05 08:39:01;;;;;;;6.80;6.10;;;8.40;50.50;;;;;;5022945;28;20433;-72
2023/04/05 08:41:36;;;;;;;6.75;5.90;;;8.50;50.20;;;;;;5022403;28;20912;-72
2023/04/05 08:44:04;;;;;;;7.38;5.88;;;8.70;49.20;;;;;;5021830;28;20455;-72
2023/04/05 08:46:34;;;;;;;6.00;5.40;;;9.00;49.30;;;;;;5010375;28;20415;-72
2023/04/05 08:49:06;;;;;;;5.80;5.30;;;9.30;47.80;;;;;;5022736;28;20435;-72
2023/04/05 08:51:36;;;;;;;6.22;5.63;;;9.40;46.70;;;;;;5022401;28;20488;-72
2023/04/05 08:54:03;;;;;;;5.72;5.30;;;9.60;45.70;;;;;;5022509;28;20445;-72
2023/04/05 08:56:33;;;;;;;6.03;5.43;;;9.80;45.80;;;;;;5020848;28;20427;-72
2023/04/05 08:59:03;;;;;;;6.50;5.90;;;9.90;45.10;;;;;;5021214;28;20435;-72
2023/04/05 09:01:31;;;;;;;6.82;6.22;;;10.00;44.90;;;;;;5021374;28;20443;-72
2023/04/05 09:03:59;;;;;;;5.30;4.80;;;10.20;45.20;;;;;;5022357;28;20896;-72
2023/04/05 09:06:27;;;;;;;6.50;5.40;;;10.30;44.70;;;;;;5023304;28;20784;-72
2023/04/05 09:08:57;;;;;;;8.43;5.20;;;10.70;42.80;;;;;;5026332;28;20489;-72
2023/04/05 09:11:24;;;;;;;6.10;5.50;;;10.70;42.50;;;;;;5026201;28;20902;-72
2023/04/05 09:13:51;;;;;;;6.90;5.80;;;10.70;43.10;;;;;;5026832;28;20772;-72
2023/04/05 09:16:19;;;;;;;6.10;5.60;;;10.80;42.70;;;;;;5027423;28;20450;-72
2023/04/05 09:18:46;;;;;;;6.50;5.80;;;10.90;42.10;;;;;;5025924;28;20437;-72
2023/04/05 09:21:12;;;;;;;6.10;5.50;;;10.80;42.70;;;;;;5018736;28;20681;-72
2023/04/05 09:23:51;;;;;;;6.13;5.60;;;11.10;42.80;;;;;;5025225;28;20515;-72
2023/04/05 09:26:21;;;;;;;6.50;5.75;;;11.40;41.00;;;;;;5019801;28;20499;-71
2023/04/05 09:28:48;;;;;;;6.00;5.50;;;11.40;39.40;;;;;;5012205;28;20438;-72
2023/04/05 09:31:31;;;;;;;6.13;5.53;;;11.30;39.10;;;;;;5027043;28;20492;-72
2023/04/05 09:33:59;;;;;;;6.60;6.00;;;11.30;38.80;;;;;;5025858;28;20498;-72
2023/04/05 09:36:27;;;;;;;7.03;5.75;;;11.30;39.00;;;;;;5026329;28;20419;-72
2023/04/05 09:39:03;;;;;;;6.05;5.55;;;11.30;39.10;;;;;;5025529;28;20447;-72
2023/04/05 09:41:31;;;;;;;6.40;5.80;;;11.20;39.50;;;;;;5025926;28;20422;-72
2023/04/05 09:43:58;;;;;;;6.15;5.65;;;11.60;39.40;;;;;;5026055;28;20495;-72
2023/04/05 09:46:32;;;;;;;5.50;5.00;;;11.90;37.80;;;;;;5026983;28;20761;-72
2023/04/05 09:49:00;;;;;;;5.50;5.10;;;12.20;38.40;;;;;;5025840;28;20442;-72
2023/04/05 09:51:33;;;;;;;6.20;5.60;;;12.50;37.00;;;;;;5025928;28;20423;-72
2023/04/05 09:54:02;;;;;;;6.00;5.40;;;12.70;36.40;;;;;;5024733;28;20434;-72
2023/04/05 09:56:33;;;;;;;5.90;5.40;;;12.70;35.90;;;;;;5025683;28;20458;-72
2023/04/05 09:59:01;;;;;;;5.90;5.40;;;12.80;35.50;;;;;;5029765;28;20450;-72
2023/04/05 10:01:30;;;;;;;5.95;5.45;;;12.80;36.20;;;;;;5035305;28;20435;-72
2023/04/05 10:03:58;;;;;;;5.68;5.18;;;13.00;35.90;;;;;;5031749;28;20514;-72
2023/04/05 10:06:35;;;;;;;6.50;5.70;;;13.10;35.40;;;;;;5034537;28;20443;-72
2023/04/05 10:09:03;;;;;;;5.82;5.32;;;13.20;35.60;;;;;;5032600;28;20510;-72
2023/04/05 10:11:32;;;;;;;6.80;5.65;;;13.40;35.20;;;;;;5033994;28;20559;-72
2023/04/05 10:14:02;;;;;;;5.93;5.32;;;13.80;34.30;;;;;;5025222;28;20549;-72
2023/04/05 10:16:33;;;;;;;4.82;4.43;;;13.80;33.70;;;;;;5025952;28;20544;-72
2023/04/05 10:19:01;;;;;;;5.18;4.60;;;13.90;31.90;;;;;;5024360;28;20560;-72
2023/04/05 10:21:30;;;;;;;5.15;4.65;;;13.80;33.10;;;;;;5026413;28;20446;-72
2023/04/05 10:24:05;;;;;;;5.15;4.68;;;13.80;33.10;;;;;;5023923;28;20453;-72
2023/04/05 10:26:40;;;;;;;5.20;4.70;;;13.80;32.80;;;;;;5020736;28;20508;-72
2023/04/05 10:29:17;;;;;;;5.35;4.50;;;13.90;32.70;;;;;;5024862;28;20537;-72
2023/04/05 10:31:51;;;;;;;4.60;4.20;;;14.10;32.80;;;;;;5026334;28;20411;-72
2023/04/05 10:34:30;;;;;;;4.80;4.40;;;14.30;32.50;;;;;;5024708;28;20944;-72
2023/04/05 10:37:00;;;;;;;5.47;4.97;;;14.60;31.60;;;;;;5023018;28;20537;-72
2023/04/05 10:39:28;;;;;;;4.95;4.50;;;14.70;31.40;;;;;;5025412;28;20779;-72
2023/04/05 10:42:01;;;;;;;4.75;4.35;;;14.60;31.20;;;;;;5025455;28;20423;-72
2023/04/05 10:44:32;;;;;;;5.30;4.80;;;14.80;30.80;;;;;;5023920;28;20443;-72
2023/04/05 10:46:59;;;;;;;5.15;4.75;;;14.80;29.90;;;;;;5025421;28;20439;-72
2023/04/05 10:49:33;;;;;;;5.38;4.88;;;14.80;30.30;;;;;;5025606;28;20435;-72
2023/04/05 10:52:01;;;;;;;5.35;4.85;;;15.00;30.30;;;;;;5025818;28;20456;-72
2023/04/05 10:54:29;;;;;;;5.57;5.00;;;15.10;29.90;;;;;;5023439;28;20519;-72
2023/04/05 10:56:58;;;;;;;5.40;4.90;;;15.10;30.40;;;;;;5023968;28;20415;-72
2023/04/05 10:59:26;;;;;;;5.35;4.93;;;14.90;30.80;;;;;;5012001;28;20418;-72
2023/04/05 11:01:54;;;;;;;5.13;4.72;;;15.00;30.60;;;;;;5026047;28;20897;-72
2023/04/05 11:04:20;;;;;;;6.70;6.10;;;15.00;30.50;;;;;;5012506;28;20419;-72
2023/04/05 11:06:47;;;;;;;5.60;5.10;;;15.20;30.40;;;;;;5024629;28;20439;-72
2023/04/05 11:09:17;;;;;;;5.10;4.70;;;15.30;30.00;;;;;;5025611;28;20471;-73
2023/04/05 11:11:45;;;;;;;5.95;5.45;;;15.20;30.10;;;;;;5021617;28;20462;-72
2023/04/05 11:14:21;;;;;;;5.50;5.00;;;15.40;30.00;;;;;;5026407;28;20431;-73
2023/04/05 11:16:52;;;;;;;5.38;4.88;;;15.50;30.10;;;;;;5025588;28;20423;-72
2023/04/05 11:19:19;;;;;;;5.30;4.80;;;15.60;30.00;;;;;;5026199;28;20419;-72
2023/04/05 11:21:46;;;;;;;5.50;4.97;;;15.70;29.80;;;;;;5026227;28;20430;-72
2023/04/05 11:24:15;;;;;;;6.05;5.55;;;15.90;29.30;;;;;;5025680;28;20446;-72
2023/04/05 11:26:56;;;;;;;5.70;5.20;;;16.00;28.70;;;;;;5026866;28;20535;-72
2023/04/05 11:29:49;;;;;;;6.30;5.70;;;15.90;29.60;;;;;;5026870;28;20507;-72
2023/04/05 11:32:16;;;;;;;5.60;5.20;;;15.90;28.90;;;;;;5035266;28;20399;-72
2023/04/05 11:34:44;;;;;;;5.77;5.37;;;15.60;29.60;;;;;;5034615;28;20446;-72
2023/04/05 11:37:12;;;;;;;6.15;5.55;;;15.70;30.00;;;;;;5036448;28;20414;-72
2023/04/05 11:39:40;;;;;;;6.28;5.68;;;15.90;29.70;;;;;;5035227;28;20453;-72
2023/04/05 11:42:11;;;;;;;5.85;5.35;;;16.20;30.40;;;;;;5035328;28;20839;-73
2023/04/05 11:44:43;;;;;;;6.15;5.65;;;16.40;29.00;;;;;;5034980;28;20515;-72
2023/04/05 11:47:11;;;;;;;6.30;5.70;;;16.60;28.90;;;;;;5037209;28;20423;-72
2023/04/05 11:49:38;;;;;;;5.95;5.20;;;16.50;28.00;;;;;;5036591;28;20457;-72
2023/04/05 11:52:14;;;;;;;6.10;5.60;;;16.60;28.60;;;;;;5032669;28;20877;-72
2023/04/05 11:54:44;;;;;;;6.30;5.80;;;16.70;28.10;;;;;;5012478;28;21056;-72
2023/04/05 11:57:13;;;;;;;6.97;6.38;;;16.70;28.10;;;;;;5024725;28;20438;-71
2023/04/05 11:59:39;;;;;;;6.57;6.07;;;16.40;28.60;;;;;;5024665;28;20458;-71
2023/04/05 12:02:08;;;;;;;6.05;5.55;;;16.30;28.10;;;;;;5025759;28;20862;-71
2023/04/05 12:04:36;;;;;;;5.65;5.13;;;16.20;28.60;;;;;;5024423;28;20435;-71
2023/04/05 12:07:10;;;;;;;6.40;5.90;;;16.40;28.30;;;;;;5022989;28;20810;-72
2023/04/05 12:09:54;;;;;;;5.88;5.38;;;16.40;27.50;;;;;;5024293;28;20898;-71
2023/04/05 12:12:21;;;;;;;5.70;5.30;;;16.30;27.50;;;;;;5024287;28;20426;-71
2023/04/05 12:14:48;;;;;;;6.47;5.88;;;16.30;28.10;;;;;;5025235;28;20533;-71
2023/04/05 12:17:14;;;;;;;6.30;5.70;;;16.40;28.10;;;;;;5021683;28;20517;-69
2023/04/05 12:19:43;;;;;;;6.07;5.68;;;16.70;28.00;;;;;;5024518;28;20415;-69
2023/04/05 12:22:10;;;;;;;6.00;5.60;;;16.90;28.00;;;;;;5024773;28;20419;-69
2023/04/05 12:24:37;;;;;;;5.78;5.28;;;17.00;27.80;;;;;;5023452;28;20435;-69
2023/04/05 12:27:04;;;;;;;6.30;5.70;;;17.10;27.90;;;;;;5023514;28;20461;-70
2023/04/05 12:29:30;;;;;;;6.18;5.68;;;17.30;27.50;;;;;;5017096;28;20526;-71
2023/04/05 12:31:57;;;;;;;6.45;5.95;;;17.60;27.30;;;;;;5024064;28;20438;-70
2023/04/05 12:34:25;;;;;;;5.90;5.50;;;17.70;26.50;;;;;;5022327;28;20453;-70
2023/04/05 12:36:54;;;;;;;6.10;5.50;;;18.10;26.60;;;;;;5022125;28;20419;-69
2023/04/05 12:39:21;;;;;;;5.80;5.30;;;18.70;26.30;;;;;;5024860;28;20423;-69
2023/04/05 12:41:58;;;;;;;6.20;5.70;;;19.20;26.50;;;;;;5026472;28;20430;-72
2023/04/05 12:44:29;;;;;;;6.50;6.00;;;19.30;25.00;;;;;;5025879;28;20415;-71
2023/04/05 12:47:01;;;;;;;6.88;6.15;;;18.70;24.80;;;;;;5018114;28;20754;-71
2023/04/05 12:49:28;;;;;;;6.40;5.90;;;18.10;25.60;;;;;;5026802;28;20654;-69
2023/04/05 12:52:01;;;;;;;6.18;5.68;;;17.80;26.50;;;;;;5028160;28;20439;-70
2023/04/05 12:54:29;;;;;;;6.43;5.82;;;17.90;26.50;;;;;;5027014;28;20881;-70
2023/04/05 12:56:56;;;;;;;6.20;5.70;;;18.00;26.80;;;;;;5027748;28;20766;-69
2023/04/05 12:59:24;;;;;;;6.82;6.18;;;18.40;26.50;;;;;;5028388;28;20437;-71
2023/04/05 13:01:51;;;;;;;6.43;5.93;;;18.50;26.20;;;;;;5027616;28;20426;-70